Time;durP1;ratioP1;P1;durP2;ratioP2;P2;SDS_P1;SDS_P2;PMS_P1;PMS_P2;Temp;Humidity;BMP_temperature;BMP_pressure;BME280_temperature;BME280_humidity;BME280_pressure;Samples;Min_cycle;Max_cycle;Signal;HPM_P1;HPM_P2
2022/08/07 00:01:35;;;;;;;7.20;4.43;;;13.70;99.90;;;;;;5071962;28;20509;-73
2022/08/07 00:04:02;;;;;;;4.82;4.25;;;13.70;99.90;;;;;;5072183;28;20056;-73
2022/08/07 00:06:27;;;;;;;7.03;4.82;;;13.60;99.90;;;;;;5071795;28;20036;-72
2022/08/07 00:08:53;;;;;;;7.93;4.78;;;13.60;99.90;;;;;;5071901;28;20516;-73
2022/08/07 00:11:18;;;;;;;7.72;5.35;;;13.50;99.90;;;;;;5071854;28;20045;-73
2022/08/07 00:13:46;;;;;;;5.65;4.47;;;13.50;99.90;;;;;;5055391;28;20043;-73
2022/08/07 00:16:13;;;;;;;6.25;4.53;;;13.50;99.90;;;;;;5071748;28;20123;-72
2022/08/07 00:18:39;;;;;;;6.57;4.65;;;13.40;99.90;;;;;;5071781;28;20048;-72
2022/08/07 00:21:06;;;;;;;7.47;4.60;;;13.40;99.90;;;;;;5071766;28;20040;-73
2022/08/07 00:23:33;;;;;;;9.23;5.00;;;13.30;99.90;;;;;;5055001;28;20048;-73
2022/08/07 00:26:00;;;;;;;6.30;4.55;;;13.30;99.90;;;;;;5071568;28;20386;-72
2022/08/07 00:28:30;;;;;;;5.95;4.32;;;13.20;99.90;;;;;;5071669;28;20409;-72
2022/08/07 00:30:55;;;;;;;7.40;5.15;;;13.20;99.90;;;;;;5071925;28;20086;-73
2022/08/07 00:33:25;;;;;;;6.57;4.35;;;13.20;99.90;;;;;;5071900;28;20037;-73
2022/08/07 00:35:52;;;;;;;9.25;4.95;;;13.10;99.90;;;;;;5071568;28;20048;-72
2022/08/07 00:38:18;;;;;;;6.78;4.90;;;13.10;99.90;;;;;;5071892;28;20049;-72
2022/08/07 00:40:43;;;;;;;7.25;4.35;;;13.10;99.90;;;;;;5071823;28;20462;-73
2022/08/07 00:43:10;;;;;;;5.18;4.40;;;13.10;99.90;;;;;;5071529;28;20083;-73
2022/08/07 00:45:40;;;;;;;5.35;4.20;;;13.10;99.90;;;;;;5071566;28;20040;-72
2022/08/07 00:48:07;;;;;;;5.38;4.18;;;13.10;99.90;;;;;;5071740;28;20043;-72
2022/08/07 00:50:33;;;;;;;6.07;4.22;;;13.10;99.90;;;;;;5071443;28;20049;-72
2022/08/07 00:52:58;;;;;;;5.70;4.00;;;13.00;99.90;;;;;;5071431;28;20042;-72
2022/08/07 00:55:24;;;;;;;6.82;4.28;;;13.00;99.90;;;;;;5071617;28;20040;-72
2022/08/07 00:57:50;;;;;;;6.32;4.10;;;12.90;99.90;;;;;;5071385;28;20541;-72
2022/08/07 01:00:17;;;;;;;5.15;4.15;;;12.90;99.90;;;;;;5071334;28;20085;-72
2022/08/07 01:02:43;;;;;;;8.32;4.90;;;12.90;99.90;;;;;;5071727;28;20404;-73
2022/08/07 01:05:10;;;;;;;5.60;4.32;;;12.80;99.90;;;;;;5074973;28;20041;-72
2022/08/07 01:07:35;;;;;;;5.43;4.40;;;12.90;99.90;;;;;;5075105;28;20036;-72
2022/08/07 01:10:02;;;;;;;6.13;4.13;;;12.80;99.90;;;;;;5075344;28;20055;-73
2022/08/07 01:12:28;;;;;;;6.13;4.03;;;12.80;99.90;;;;;;5075022;28;20032;-73
2022/08/07 01:14:56;;;;;;;5.07;4.35;;;12.80;99.90;;;;;;5075196;28;20024;-72
2022/08/07 01:17:22;;;;;;;7.18;4.50;;;12.70;99.90;;;;;;5074792;28;20400;-72
2022/08/07 01:19:49;;;;;;;6.05;4.63;;;12.70;99.90;;;;;;5074715;28;20041;-73
2022/08/07 01:22:15;;;;;;;7.80;4.65;;;12.70;99.90;;;;;;5058164;28;20028;-73
2022/08/07 01:24:41;;;;;;;9.25;4.63;;;12.70;99.90;;;;;;5074720;28;20455;-73
2022/08/07 01:27:07;;;;;;;6.22;4.50;;;12.70;99.90;;;;;;5057960;28;20076;-72
2022/08/07 01:29:33;;;;;;;4.63;4.20;;;12.60;99.90;;;;;;5058064;28;20044;-73
2022/08/07 01:31:59;;;;;;;5.82;4.00;;;12.60;99.90;;;;;;5074643;28;20047;-73
2022/08/07 01:34:25;;;;;;;4.55;4.05;;;12.60;99.90;;;;;;5057949;28;20043;-73
2022/08/07 01:36:51;;;;;;;6.70;4.50;;;12.60;99.90;;;;;;5074467;28;20081;-72
2022/08/07 01:39:17;;;;;;;5.93;4.47;;;12.50;99.90;;;;;;5074763;28;20040;-73
2022/08/07 01:41:43;;;;;;;8.30;4.82;;;12.50;99.90;;;;;;5074474;28;20123;-73
2022/08/07 01:44:10;;;;;;;6.40;4.55;;;12.50;99.90;;;;;;5074686;28;20058;-73
2022/08/07 01:46:36;;;;;;;5.53;4.50;;;12.50;99.90;;;;;;5074278;28;20044;-72
2022/08/07 01:49:02;;;;;;;5.32;4.53;;;12.50;99.90;;;;;;5074310;28;20032;-73
2022/08/07 01:51:29;;;;;;;5.38;4.53;;;12.50;99.90;;;;;;5074350;28;20047;-73
2022/08/07 01:53:56;;;;;;;4.78;4.20;;;12.50;99.90;;;;;;5074274;28;20041;-73
2022/08/07 01:56:32;;;;;;;5.78;4.45;;;12.50;99.90;;;;;;5074118;28;20090;-73
2022/08/07 01:59:05;;;;;;;5.47;4.10;;;12.50;99.90;;;;;;5074480;28;20044;-72
2022/08/07 02:01:38;;;;;;;8.13;4.50;;;12.40;99.90;;;;;;5074213;28;20040;-72
2022/08/07 02:04:12;;;;;;;;;;;12.40;99.90;;;;;;5074525;28;20493;-72
2022/08/07 02:06:39;;;;;;;5.40;4.43;;;12.30;99.90;;;;;;5073899;28;19920;-72
2022/08/07 02:09:08;;;;;;;7.18;4.57;;;12.30;99.90;;;;;;5073993;28;20036;-73
2022/08/07 02:11:37;;;;;;;5.10;4.60;;;12.40;99.90;;;;;;5073985;28;20496;-73
2022/08/07 02:14:06;;;;;;;5.75;4.32;;;12.40;99.90;;;;;;5073587;28;20040;-72
2022/08/07 02:16:33;;;;;;;6.07;4.53;;;12.40;99.90;;;;;;5073786;28;20049;-72
2022/08/07 02:19:05;;;;;;;9.23;4.57;;;12.30;99.90;;;;;;5074102;28;20049;-72
2022/08/07 02:21:33;;;;;;;6.35;4.32;;;12.30;99.90;;;;;;5073750;28;20049;-72
2022/08/07 02:23:59;;;;;;;6.68;4.13;;;12.30;99.90;;;;;;5073687;28;20558;-73
2022/08/07 02:26:26;;;;;;;6.70;4.25;;;12.30;99.90;;;;;;5073525;28;20040;-72
2022/08/07 02:28:54;;;;;;;4.88;4.32;;;12.20;99.90;;;;;;5073849;28;20097;-73
2022/08/07 02:31:21;;;;;;;5.85;4.30;;;12.30;99.90;;;;;;5073811;28;20068;-73
2022/08/07 02:33:49;;;;;;;4.35;3.78;;;12.20;99.90;;;;;;5073547;28;20455;-73
2022/08/07 02:36:16;;;;;;;6.20;4.32;;;12.20;99.90;;;;;;5073625;28;20500;-73
2022/08/07 02:38:43;;;;;;;5.35;4.13;;;12.20;99.90;;;;;;5073651;28;20055;-72
2022/08/07 02:41:11;;;;;;;4.63;4.10;;;12.20;99.90;;;;;;5073375;28;20036;-72
2022/08/07 02:43:41;;;;;;;5.40;4.20;;;12.10;99.90;;;;;;5073321;28;20041;-72
2022/08/07 02:46:08;;;;;;;5.97;3.92;;;12.10;99.90;;;;;;5073131;28;20059;-72
2022/08/07 02:48:34;;;;;;;6.22;4.47;;;12.10;99.90;;;;;;5073185;28;20082;-72
2022/08/07 02:51:08;;;;;;;5.40;4.72;;;12.10;99.90;;;;;;5073463;28;20130;-73
2022/08/07 02:53:37;;;;;;;7.00;4.68;;;12.10;99.90;;;;;;5073176;28;20049;-73
2022/08/07 02:56:04;;;;;;;6.78;4.13;;;12.10;99.90;;;;;;5073001;28;20131;-73
2022/08/07 02:58:30;;;;;;;5.13;3.90;;;12.00;99.90;;;;;;5072971;28;20123;-72
2022/08/07 03:00:57;;;;;;;5.85;4.50;;;11.90;99.90;;;;;;5072971;28;20166;-72
2022/08/07 03:03:27;;;;;;;5.55;4.35;;;12.00;99.90;;;;;;5073205;28;20142;-72
2022/08/07 03:05:53;;;;;;;5.22;4.45;;;12.00;99.90;;;;;;5072650;28;20052;-72
2022/08/07 03:08:20;;;;;;;5.03;4.28;;;11.90;99.90;;;;;;5072825;28;20120;-73
2022/08/07 03:10:47;;;;;;;5.13;3.95;;;11.90;99.90;;;;;;5072724;28;20382;-73
2022/08/07 03:13:17;;;;;;;7.22;4.60;;;11.90;99.90;;;;;;5072692;28;20086;-73
2022/08/07 03:15:43;;;;;;;5.10;4.18;;;11.90;99.90;;;;;;5055935;28;20086;-72
2022/08/07 03:18:10;;;;;;;4.47;4.03;;;11.80;99.90;;;;;;5072902;28;20064;-73
2022/08/07 03:20:36;;;;;;;7.30;4.78;;;11.70;99.90;;;;;;5072496;28;20166;-72
2022/08/07 03:23:03;;;;;;;5.97;4.90;;;11.70;99.90;;;;;;5072540;28;20044;-73
2022/08/07 03:25:32;;;;;;;5.22;4.70;;;11.70;99.90;;;;;;5071867;28;20047;-72
2022/08/07 03:27:59;;;;;;;5.05;4.45;;;11.70;99.90;;;;;;5072318;28;20042;-72
2022/08/07 03:30:25;;;;;;;6.13;4.57;;;11.70;99.90;;;;;;5072415;28;20032;-73
2022/08/07 03:32:52;;;;;;;7.88;5.28;;;11.70;99.90;;;;;;5055707;28;20085;-73
2022/08/07 03:35:24;;;;;;;6.55;4.53;;;11.60;99.90;;;;;;5055837;28;20051;-72
2022/08/07 03:37:55;;;;;;;5.47;4.32;;;11.70;99.90;;;;;;5072495;28;20528;-73
2022/08/07 03:40:22;;;;;;;6.60;4.53;;;11.60;99.90;;;;;;5072496;28;20409;-72
2022/08/07 03:42:48;;;;;;;4.85;4.00;;;11.60;99.90;;;;;;5072175;28;20044;-73
2022/08/07 03:45:15;;;;;;;7.35;4.70;;;11.60;99.90;;;;;;5055372;28;20520;-72
2022/08/07 03:47:41;;;;;;;5.95;4.68;;;11.60;99.90;;;;;;5072138;28;20460;-72
2022/08/07 03:50:07;;;;;;;7.22;4.93;;;11.60;99.90;;;;;;5055447;28;20037;-72
2022/08/07 03:52:33;;;;;;;5.45;4.53;;;11.60;99.90;;;;;;5072329;28;20052;-72
2022/08/07 03:55:00;;;;;;;4.97;4.13;;;11.60;99.90;;;;;;5072864;28;20044;-72
2022/08/07 03:57:28;;;;;;;5.15;4.65;;;11.60;99.90;;;;;;5071894;28;20036;-72
2022/08/07 03:59:55;;;;;;;6.63;4.35;;;11.60;99.90;;;;;;5071924;28;20040;-73
2022/08/07 04:02:22;;;;;;;6.10;4.72;;;11.60;99.90;;;;;;5071990;28;20040;-73
2022/08/07 04:04:48;;;;;;;7.70;4.97;;;11.60;99.90;;;;;;5071962;28;20127;-73
2022/08/07 04:07:18;;;;;;;5.13;3.75;;;11.60;99.90;;;;;;5071794;28;20082;-73
2022/08/07 04:09:46;;;;;;;4.07;3.10;;;11.60;99.90;;;;;;5072132;28;20538;-72
2022/08/07 04:12:12;;;;;;;4.85;3.08;;;11.60;99.90;;;;;;5072104;28;20439;-73
2022/08/07 04:14:39;;;;;;;3.97;3.22;;;11.50;99.90;;;;;;5055410;28;20039;-73
2022/08/07 04:17:06;;;;;;;4.65;3.80;;;11.60;99.90;;;;;;5071713;28;20047;-72
2022/08/07 04:19:31;;;;;;;6.60;4.03;;;11.50;99.90;;;;;;5071589;28;20443;-72
2022/08/07 04:21:57;;;;;;;6.45;3.70;;;11.50;99.90;;;;;;5072046;28;20052;-73
2022/08/07 04:24:24;;;;;;;5.32;4.65;;;11.50;99.90;;;;;;5071730;28;20544;-73
2022/08/07 04:26:50;;;;;;;6.40;4.00;;;11.50;99.90;;;;;;5071669;28;20497;-73
2022/08/07 04:29:16;;;;;;;5.80;4.78;;;11.50;99.90;;;;;;5071678;28;20048;-73
2022/08/07 04:31:42;;;;;;;7.20;4.20;;;11.50;99.90;;;;;;5071657;28;20489;-73
2022/08/07 04:34:08;;;;;;;5.53;4.57;;;11.40;99.90;;;;;;5071636;28;20043;-73
2022/08/07 04:36:34;;;;;;;4.43;3.90;;;11.40;99.90;;;;;;5055061;28;20064;-72
2022/08/07 04:39:01;;;;;;;5.20;4.15;;;11.40;99.90;;;;;;5075630;28;20409;-72
2022/08/07 04:41:27;;;;;;;7.82;4.10;;;11.50;99.90;;;;;;5075911;28;20044;-73
2022/08/07 04:43:54;;;;;;;5.78;4.60;;;11.40;99.90;;;;;;5075628;28;20075;-73
2022/08/07 04:46:38;;;;;;;6.05;4.85;;;11.50;99.90;;;;;;5075411;28;20044;-73
2022/08/07 04:49:36;;;;;;;5.68;4.05;;;11.50;99.90;;;;;;5075542;28;20037;-73
2022/08/07 04:52:34;;;;;;;6.70;4.85;;;11.60;99.90;;;;;;5058713;28;20512;-73
2022/08/07 04:55:33;;;;;;;8.43;5.68;;;11.60;99.90;;;;;;5067273;28;20044;-73
2022/08/07 04:58:11;;;;;;;8.82;5.82;;;11.70;99.90;;;;;;5058926;28;20154;-72
2022/08/07 05:00:42;;;;;;;8.93;6.28;;;11.70;99.90;;;;;;5075598;28;20115;-72
2022/08/07 05:03:20;;;;;;;6.63;6.03;;;11.80;99.90;;;;;;5075458;28;20059;-73
2022/08/07 05:06:10;;;;;;;8.00;6.45;;;11.80;99.90;;;;;;5075026;28;20124;-72
2022/08/07 05:08:49;;;;;;;8.95;6.00;;;11.90;99.90;;;;;;5075135;28;20485;-73
2022/08/07 05:11:23;;;;;;;9.13;7.15;;;11.90;99.90;;;;;;5075104;28;20488;-73
2022/08/07 05:14:12;;;;;;;10.65;7.18;;;12.00;99.90;;;;;;5075045;28;20082;-73
2022/08/07 05:16:39;;;;;;;9.10;7.53;;;12.10;99.90;;;;;;5075717;28;20048;-72
2022/08/07 05:19:13;;;;;;;8.48;7.55;;;12.10;99.90;;;;;;5074882;28;20512;-72
2022/08/07 05:21:43;;;;;;;10.02;7.28;;;12.20;99.90;;;;;;5075090;28;20037;-73
2022/08/07 05:24:10;;;;;;;12.35;7.72;;;12.20;99.90;;;;;;5075048;28;20390;-73
2022/08/07 05:26:38;;;;;;;8.73;7.07;;;12.20;99.90;;;;;;5074642;28;20076;-72
2022/08/07 05:29:06;;;;;;;9.48;6.95;;;12.30;99.90;;;;;;5058023;28;20051;-73
2022/08/07 05:31:37;;;;;;;8.65;6.25;;;12.40;99.90;;;;;;5074945;28;20040;-73
2022/08/07 05:34:12;;;;;;;9.50;6.80;;;12.50;99.90;;;;;;5074955;28;20155;-73
2022/08/07 05:36:49;;;;;;;9.45;6.97;;;12.50;99.90;;;;;;5074754;28;20067;-72
2022/08/07 05:39:18;;;;;;;8.05;6.50;;;12.60;99.90;;;;;;5074766;28;20485;-72
2022/08/07 05:41:46;;;;;;;7.22;6.15;;;12.70;99.90;;;;;;5074705;28;20044;-72
2022/08/07 05:44:12;;;;;;;9.68;7.00;;;12.80;99.90;;;;;;5074745;28;20405;-72
2022/08/07 05:46:40;;;;;;;9.63;6.40;;;12.90;99.90;;;;;;5057641;28;20041;-72
2022/08/07 05:49:08;;;;;;;7.97;6.30;;;13.00;99.90;;;;;;5073672;28;20037;-72
2022/08/07 05:51:34;;;;;;;9.18;7.05;;;13.10;99.90;;;;;;5074576;28;20455;-72
2022/08/07 05:54:01;;;;;;;10.30;6.68;;;13.10;99.90;;;;;;5074333;28;20041;-73
2022/08/07 05:56:28;;;;;;;8.23;6.50;;;13.20;99.90;;;;;;5074206;28;20117;-72
2022/08/07 05:58:54;;;;;;;9.63;6.97;;;13.30;99.90;;;;;;5074239;28;20055;-72
2022/08/07 06:01:21;;;;;;;9.48;7.22;;;13.40;99.90;;;;;;5074233;28;20041;-73
2022/08/07 06:03:49;;;;;;;12.57;8.63;;;13.50;99.90;;;;;;5057683;28;20078;-73
2022/08/07 06:06:15;;;;;;;11.90;8.85;;;13.60;99.90;;;;;;5074041;28;20041;-73
2022/08/07 06:08:42;;;;;;;11.63;9.45;;;13.70;99.90;;;;;;5074005;28;20511;-72
2022/08/07 06:11:08;;;;;;;9.18;8.27;;;13.90;99.90;;;;;;5074294;28;20105;-73
2022/08/07 06:13:37;;;;;;;14.02;9.15;;;14.00;99.90;;;;;;5073948;28;20040;-72
2022/08/07 06:16:06;;;;;;;11.05;9.68;;;14.10;99.90;;;;;;5073826;28;20093;-73
2022/08/07 06:18:32;;;;;;;12.20;9.45;;;14.20;99.90;;;;;;5073903;28;20044;-73
2022/08/07 06:21:03;;;;;;;11.52;9.43;;;14.30;99.90;;;;;;5073687;28;20032;-73
2022/08/07 06:23:29;;;;;;;13.93;9.32;;;14.40;99.90;;;;;;5073863;28;20036;-72
2022/08/07 06:25:56;;;;;;;16.15;9.27;;;14.50;99.90;;;;;;5073620;28;20045;-71
2022/08/07 06:28:22;;;;;;;13.38;9.40;;;14.60;99.90;;;;;;5073774;28;20111;-71
2022/08/07 06:30:47;;;;;;;12.85;9.60;;;14.80;99.90;;;;;;5074111;28;20128;-71
2022/08/07 06:33:13;;;;;;;13.15;9.57;;;14.90;99.90;;;;;;5073810;28;20044;-71
2022/08/07 06:35:39;;;;;;;12.95;9.55;;;15.00;99.90;;;;;;5073493;28;20463;-71
2022/08/07 06:38:05;;;;;;;10.73;9.63;;;15.10;99.90;;;;;;5073726;28;20067;-71
2022/08/07 06:40:48;;;;;;;11.10;9.50;;;15.20;99.90;;;;;;5073367;28;20048;-72
2022/08/07 06:43:17;;;;;;;14.90;9.40;;;15.30;99.90;;;;;;5073384;28;20059;-72
2022/08/07 06:45:43;;;;;;;17.73;10.23;;;15.40;99.90;;;;;;5073120;28;20131;-71
2022/08/07 06:48:08;;;;;;;13.80;9.65;;;15.50;99.90;;;;;;5073257;28;20071;-71
2022/08/07 06:50:37;;;;;;;15.07;9.75;;;15.60;99.90;;;;;;5073174;28;20032;-71
2022/08/07 06:53:06;;;;;;;13.77;9.63;;;15.70;99.90;;;;;;5073097;28;20528;-71
2022/08/07 06:55:33;;;;;;;12.73;10.23;;;15.80;99.90;;;;;;5056635;28;20036;-71
2022/08/07 06:58:02;;;;;;;10.57;8.55;;;15.80;99.90;;;;;;5073040;28;20053;-71
2022/08/07 07:00:34;;;;;;;12.02;7.55;;;15.90;99.90;;;;;;5072230;28;20127;-71
2022/08/07 07:03:01;;;;;;;9.13;7.25;;;16.00;99.90;;;;;;5073203;28;20044;-71
2022/08/07 07:05:27;;;;;;;8.55;6.10;;;16.10;99.90;;;;;;5072796;28;20170;-71
2022/08/07 07:07:53;;;;;;;6.80;5.47;;;16.20;99.90;;;;;;5072815;28;20033;-71
2022/08/07 07:10:34;;;;;;;8.10;6.20;;;16.30;99.90;;;;;;5073056;28;20043;-71
2022/08/07 07:13:20;;;;;;;8.20;5.85;;;16.40;99.90;;;;;;5072978;28;20105;-72
2022/08/07 07:15:48;;;;;;;8.15;5.72;;;16.50;99.90;;;;;;5072611;28;20123;-71
2022/08/07 07:18:41;;;;;;;5.88;4.47;;;16.60;99.90;;;;;;5056020;28;20041;-72
2022/08/07 07:21:19;;;;;;;5.88;4.47;;;16.70;99.90;;;;;;5056175;28;20032;-72
2022/08/07 07:23:52;;;;;;;7.13;4.13;;;16.80;99.90;;;;;;5091586;28;20427;-71
2022/08/07 07:26:21;;;;;;;5.43;3.97;;;16.90;99.90;;;;;;5089295;28;20047;-70
2022/08/07 07:28:58;;;;;;;4.38;3.30;;;17.00;99.90;;;;;;5089524;28;20045;-71
2022/08/07 07:31:38;;;;;;;6.78;3.78;;;17.10;99.90;;;;;;5089624;28;20044;-72
2022/08/07 07:34:07;;;;;;;5.28;3.38;;;17.20;99.90;;;;;;5072393;28;20040;-71
2022/08/07 07:36:34;;;;;;;3.47;2.22;;;17.40;99.90;;;;;;5089062;28;20379;-71
2022/08/07 07:39:02;;;;;;;3.67;2.60;;;17.50;99.90;;;;;;5089136;28;20050;-72
2022/08/07 07:41:29;;;;;;;4.30;2.30;;;17.60;99.90;;;;;;5089036;28;20040;-72
2022/08/07 07:43:57;;;;;;;4.15;2.45;;;17.70;99.90;;;;;;5089033;28;20078;-71
2022/08/07 07:46:25;;;;;;;3.58;1.77;;;17.90;99.90;;;;;;5088921;28;20041;-71
2022/08/07 07:48:52;;;;;;;3.28;1.70;;;17.90;99.90;;;;;;5088950;28;20041;-71
2022/08/07 07:51:20;;;;;;;4.05;2.60;;;18.00;99.90;;;;;;5072094;28;20496;-72
2022/08/07 07:53:47;;;;;;;3.30;2.33;;;18.20;99.90;;;;;;5072070;28;20134;-72
2022/08/07 07:56:15;;;;;;;5.35;3.70;;;18.30;99.90;;;;;;5088774;28;20096;-71
2022/08/07 07:58:42;;;;;;;5.55;3.28;;;18.40;99.90;;;;;;5088785;28;20129;-71
2022/08/07 08:01:09;;;;;;;6.88;3.10;;;18.50;99.90;;;;;;5088749;28;20585;-72
2022/08/07 08:03:37;;;;;;;5.75;3.15;;;18.60;99.90;;;;;;5088615;28;20127;-72
2022/08/07 08:06:05;;;;;;;3.72;2.70;;;18.70;99.90;;;;;;5088543;28;20044;-71
2022/08/07 08:08:32;;;;;;;3.38;1.67;;;18.80;99.90;;;;;;5088909;28;20087;-72
2022/08/07 08:11:00;;;;;;;3.38;1.70;;;18.80;99.90;;;;;;5088775;28;20032;-72
2022/08/07 08:13:27;;;;;;;3.22;1.90;;;18.90;99.90;;;;;;5071681;28;20047;-71
2022/08/07 08:15:55;;;;;;;4.25;1.60;;;19.10;99.90;;;;;;5088667;28;20097;-71
2022/08/07 08:18:23;;;;;;;1.85;1.35;;;19.10;99.90;;;;;;5088657;28;20040;-72
2022/08/07 08:20:49;;;;;;;3.55;1.75;;;19.20;99.90;;;;;;5071411;28;20036;-71
2022/08/07 08:28:54;;;;;;;3.53;1.98;;;19.60;99.90;;;;;;5088243;28;20124;-71
2022/08/07 08:31:27;;;;;;;4.65;1.77;;;19.80;99.90;;;;;;5088167;28;20408;-71
2022/08/07 08:33:55;;;;;;;4.43;2.20;;;19.90;99.60;;;;;;5083544;28;20044;-71
2022/08/07 08:36:24;;;;;;;2.63;1.70;;;20.00;98.10;;;;;;5057778;28;20530;-71
2022/08/07 08:38:52;;;;;;;4.90;1.98;;;20.10;97.50;;;;;;5058080;28;20519;-72
2022/08/07 08:41:23;;;;;;;2.70;1.45;;;20.20;98.80;;;;;;5074521;28;20040;-72
2022/08/07 08:43:58;;;;;;;2.95;1.88;;;20.40;97.00;;;;;;5074411;28;20045;-72
2022/08/07 08:46:49;;;;;;;3.33;1.90;;;20.50;94.80;;;;;;5057819;28;20047;-71
2022/08/07 08:49:36;;;;;;;4.10;1.80;;;20.60;94.30;;;;;;5074372;28;20040;-71
2022/08/07 08:52:11;;;;;;;2.90;1.90;;;20.70;92.80;;;;;;5074325;28;20044;-71
2022/08/07 08:55:10;;;;;;;3.60;2.03;;;20.80;91.40;;;;;;5074286;28;20075;-72
2022/08/07 08:57:48;;;;;;;3.28;1.70;;;20.80;90.60;;;;;;5066853;28;20045;-71
2022/08/07 09:00:15;;;;;;;4.43;1.80;;;20.80;90.20;;;;;;5074184;28;20040;-71
2022/08/07 09:03:17;;;;;;;4.38;2.13;;;20.80;93.30;;;;;;5074193;28;20071;-72
2022/08/07 09:06:13;;;;;;;3.03;1.90;;;21.00;90.40;;;;;;5053776;28;20410;-71
2022/08/07 09:08:47;;;;;;;2.78;1.55;;;21.20;88.80;;;;;;5068313;28;20044;-72
2022/08/07 09:11:35;;;;;;;3.85;1.92;;;21.50;88.70;;;;;;5057238;28;20036;-72
2022/08/07 09:14:07;;;;;;;4.00;1.77;;;21.60;85.80;;;;;;5074190;28;20036;-72
2022/08/07 09:17:00;;;;;;;2.40;1.40;;;21.70;83.30;;;;;;5073752;28;20040;-71
2022/08/07 09:19:47;;;;;;;5.43;1.45;;;21.90;84.70;;;;;;5073780;28;20128;-71
2022/08/07 09:22:44;;;;;;;1.90;0.90;;;22.00;84.20;;;;;;5073540;28;20567;-72
2022/08/07 09:25:25;;;;;;;3.28;1.40;;;22.00;78.50;;;;;;5073605;28;20032;-71
2022/08/07 09:27:56;;;;;;;3.53;1.58;;;21.80;79.20;;;;;;5073629;28;20043;-71
2022/08/07 09:30:26;;;;;;;2.97;1.45;;;21.80;78.10;;;;;;5056924;28;20033;-72
2022/08/07 09:32:52;;;;;;;2.38;1.63;;;21.90;78.40;;;;;;5073551;28;20040;-72
2022/08/07 09:35:53;;;;;;;4.18;1.60;;;22.20;78.90;;;;;;5073367;28;20128;-71
2022/08/07 09:38:37;;;;;;;5.32;1.73;;;22.50;75.50;;;;;;5038395;28;20048;-72
2022/08/07 09:41:44;;;;;;;5.03;1.50;;;22.60;74.10;;;;;;5056678;28;20129;-72
2022/08/07 09:44:44;;;;;;;2.90;1.40;;;22.80;71.30;;;;;;5073628;28;20044;-71
2022/08/07 09:47:18;;;;;;;5.28;1.80;;;22.80;69.70;;;;;;5072473;28;20464;-71
2022/08/07 09:50:00;;;;;;;4.18;1.70;;;22.80;68.90;;;;;;5073176;28;20040;-70
2022/08/07 09:52:26;;;;;;;3.00;1.58;;;22.70;68.90;;;;;;5073227;28;20045;-72
2022/08/07 09:55:02;;;;;;;2.78;1.50;;;22.50;70.40;;;;;;5073039;28;20090;-72
2022/08/07 09:57:49;;;;;;;2.40;1.40;;;22.70;69.60;;;;;;5072852;28;20083;-71
2022/08/07 10:00:28;;;;;;;3.92;1.65;;;22.90;67.70;;;;;;5073164;28;20047;-70
2022/08/07 10:03:08;;;;;;;4.13;1.40;;;23.10;66.50;;;;;;5072854;28;20044;-72
2022/08/07 10:06:11;;;;;;;2.03;1.10;;;23.30;62.70;;;;;;5073081;28;20077;-70
2022/08/07 10:08:43;;;;;;;3.47;1.42;;;23.60;58.50;;;;;;5073114;28;20058;-71
2022/08/07 10:11:39;;;;;;;2.08;1.27;;;23.80;61.10;;;;;;5073057;28;20502;-71
2022/08/07 10:14:11;;;;;;;2.97;1.40;;;24.10;62.20;;;;;;5069465;28;20056;-72
2022/08/07 10:17:05;;;;;;;4.35;1.13;;;24.20;60.10;;;;;;5072858;28;20473;-70
2022/08/07 10:19:46;;;;;;;2.67;1.38;;;24.40;56.30;;;;;;5072593;28;20048;-70
2022/08/07 10:22:17;;;;;;;2.00;1.10;;;24.40;54.40;;;;;;5072716;28;20144;-71
2022/08/07 10:25:15;;;;;;;2.22;1.20;;;24.50;54.80;;;;;;5055835;28;20041;-71
2022/08/07 10:27:53;;;;;;;2.45;1.20;;;24.70;54.90;;;;;;5055879;28;20037;-70
2022/08/07 10:30:32;;;;;;;2.15;1.45;;;24.90;55.50;;;;;;5072686;28;20185;-71
2022/08/07 10:33:20;;;;;;;1.77;1.35;;;24.90;55.60;;;;;;5072666;28;20449;-71
2022/08/07 10:35:52;;;;;;;3.22;1.50;;;24.90;56.50;;;;;;5072281;28;20052;-71
2022/08/07 10:38:37;;;;;;;2.28;1.27;;;24.90;57.60;;;;;;5072311;28;20070;-71
2022/08/07 10:41:17;;;;;;;4.10;1.30;;;24.90;56.90;;;;;;5055957;28;20153;-71
2022/08/07 10:44:01;;;;;;;2.28;1.30;;;25.10;53.80;;;;;;5055634;28;20040;-72
2022/08/07 10:46:34;;;;;;;3.58;1.13;;;25.30;54.40;;;;;;5072227;28;20049;-71
2022/08/07 10:49:34;;;;;;;1.30;0.85;;;25.30;55.20;;;;;;5072129;28;20047;-70
2022/08/07 10:52:23;;;;;;;4.75;1.40;;;25.60;54.90;;;;;;5072304;28;20044;-71
2022/08/07 10:55:12;;;;;;;4.95;1.20;;;25.80;55.30;;;;;;5072013;28;20036;-71
2022/08/07 10:58:05;;;;;;;2.75;1.52;;;25.90;52.50;;;;;;5071718;28;20445;-71
2022/08/07 11:00:42;;;;;;;2.92;1.27;;;25.90;53.00;;;;;;5048021;28;20056;-71
2022/08/07 11:03:22;;;;;;;2.03;1.13;;;26.10;53.90;;;;;;5071790;28;20413;-71
2022/08/07 11:06:12;;;;;;;1.42;1.20;;;26.30;51.00;;;;;;5072056;28;20124;-71
2022/08/07 11:09:01;;;;;;;2.50;1.30;;;26.30;51.10;;;;;;5072092;28;20457;-71
2022/08/07 11:11:35;;;;;;;2.65;1.10;;;26.00;47.10;;;;;;5071766;28;20059;-71
2022/08/07 11:14:22;;;;;;;3.00;1.20;;;25.90;48.70;;;;;;5071782;28;20119;-72
2022/08/07 11:17:02;;;;;;;3.13;1.02;;;25.90;50.20;;;;;;5071694;28;20036;-71
2022/08/07 11:19:56;;;;;;;3.78;1.27;;;26.10;49.00;;;;;;5071711;28;20040;-71
2022/08/07 11:22:29;;;;;;;3.00;1.20;;;26.20;47.60;;;;;;5071683;28;20493;-71
2022/08/07 11:25:15;;;;;;;2.75;1.30;;;26.20;47.60;;;;;;5071939;28;20055;-71
2022/08/07 11:27:43;;;;;;;3.28;1.20;;;26.50;50.40;;;;;;5071655;28;20040;-70
2022/08/07 11:30:16;;;;;;;2.45;1.00;;;26.80;49.10;;;;;;5071640;28;20033;-71
2022/08/07 11:33:05;;;;;;;1.65;1.20;;;27.10;48.70;;;;;;5071932;28;20037;-72
2022/08/07 11:35:45;;;;;;;2.25;1.20;;;27.00;47.10;;;;;;5071597;28;20048;-71
2022/08/07 11:38:16;;;;;;;1.95;1.00;;;26.90;46.30;;;;;;5071651;28;20123;-70
2022/08/07 11:40:56;;;;;;;2.90;1.42;;;27.10;48.10;;;;;;5071545;28;20076;-72
2022/08/07 11:43:33;;;;;;;2.20;1.20;;;27.20;46.50;;;;;;5071471;28;20127;-72
2022/08/07 11:46:29;;;;;;;2.35;1.10;;;27.20;46.30;;;;;;5071933;28;20041;-70
2022/08/07 11:49:01;;;;;;;2.70;1.17;;;27.30;45.80;;;;;;5071375;28;20079;-71
2022/08/07 11:51:46;;;;;;;;;;;27.40;46.30;;;;;;5071820;28;20040;-72
2022/08/07 11:54:34;;;;;;;2.10;1.30;;;27.50;46.60;;;;;;5071464;28;19971;-72
2022/08/07 11:57:10;;;;;;;4.57;1.33;;;27.50;45.70;;;;;;5054691;28;20051;-71
2022/08/07 11:59:54;;;;;;;1.80;1.05;;;27.60;45.30;;;;;;5071387;28;20083;-72
2022/08/07 12:02:38;;;;;;;1.85;1.40;;;27.60;44.30;;;;;;5071268;28;20390;-71
2022/08/07 12:05:15;;;;;;;2.38;1.30;;;27.60;45.30;;;;;;5071400;28;20041;-71
2022/08/07 12:08:10;;;;;;;2.10;1.20;;;27.50;44.90;;;;;;5071322;28;20044;-71
2022/08/07 12:10:50;;;;;;;2.10;1.17;;;27.50;45.80;;;;;;5075718;28;20102;-72
2022/08/07 12:13:24;;;;;;;1.50;0.95;;;27.50;47.00;;;;;;5058348;28;20052;-72
2022/08/07 12:16:16;;;;;;;2.25;1.40;;;27.70;45.50;;;;;;5058207;28;20050;-72
2022/08/07 12:19:07;;;;;;;2.92;1.30;;;27.80;45.10;;;;;;5074963;28;20076;-72
2022/08/07 12:22:09;;;;;;;2.38;1.30;;;27.90;44.90;;;;;;5058124;28;20103;-72
2022/08/07 12:27:46;;;;;;;3.25;1.20;;;27.90;46.10;;;;;;5074694;28;20083;-72
2022/08/07 12:30:15;;;;;;;2.17;1.10;;;27.90;44.10;;;;;;5058106;28;20045;-72
2022/08/07 12:32:57;;;;;;;2.25;1.08;;;28.00;45.00;;;;;;5074632;28;20047;-73
2022/08/07 12:35:24;;;;;;;;;;;28.20;44.30;;;;;;5075272;28;20044;-71
2022/08/07 12:37:51;;;;;;;3.17;1.08;;;27.90;43.10;;;;;;5074577;28;19923;-71
2022/08/07 12:40:21;;;;;;;1.73;0.98;;;28.00;44.80;;;;;;5074504;28;20078;-72
2022/08/07 12:42:51;;;;;;;2.45;1.00;;;28.10;44.40;;;;;;5074408;28;20040;-73
2022/08/07 12:45:30;;;;;;;4.35;1.30;;;28.30;44.20;;;;;;5057650;28;20043;-71
2022/08/07 12:48:08;;;;;;;2.38;0.95;;;28.50;45.20;;;;;;5074700;28;20048;-73
2022/08/07 12:50:40;;;;;;;3.92;1.00;;;28.70;45.60;;;;;;5075195;28;20045;-72
2022/08/07 12:53:10;;;;;;;1.63;1.00;;;28.80;44.20;;;;;;5074337;28;20044;-73
2022/08/07 12:55:50;;;;;;;1.75;1.00;;;28.90;44.60;;;;;;5057755;28;20119;-71
2022/08/07 12:58:18;;;;;;;2.65;1.15;;;28.90;42.70;;;;;;5074187;28;20063;-71
2022/08/07 13:00:52;;;;;;;2.88;1.20;;;29.00;43.20;;;;;;5057456;28;20056;-72
2022/08/07 13:03:36;;;;;;;1.60;1.00;;;29.00;43.40;;;;;;5074152;28;20041;-73
2022/08/07 13:06:35;;;;;;;1.85;0.80;;;29.10;42.20;;;;;;5073934;28;20028;-71
2022/08/07 13:09:17;;;;;;;3.83;1.10;;;29.20;42.40;;;;;;5074052;28;20045;-72
2022/08/07 13:11:59;;;;;;;2.40;1.02;;;29.30;41.80;;;;;;5074039;28;20075;-72
2022/08/07 13:14:51;;;;;;;0.93;0.80;;;29.40;39.80;;;;;;5074245;28;20048;-71
2022/08/07 13:17:47;;;;;;;1.73;0.93;;;29.20;40.10;;;;;;5057384;28;20501;-72
2022/08/07 13:20:35;;;;;;;1.67;0.95;;;29.30;42.10;;;;;;5073994;28;20046;-71
2022/08/07 13:23:31;;;;;;;3.53;0.80;;;29.20;42.50;;;;;;5073574;28;20041;-73
2022/08/07 13:26:18;;;;;;;2.38;1.15;;;29.40;42.70;;;;;;5073929;28;20409;-72